Time;durP1;ratioP1;P1;durP2;ratioP2;P2;SDS_P1;SDS_P2;PMS_P1;PMS_P2;Temp;Humidity;BMP_temperature;BMP_pressure;BME280_temperature;BME280_humidity;BME280_pressure;Samples;Min_cycle;Max_cycle;Signal;HPM_P1;HPM_P2
2023/12/23 00:00:58;;;;;;;5.78;1.83;;;8.10;99.90;;;;;;4931787;28;20059;-76
2023/12/23 00:03:24;;;;;;;15.43;1.45;;;8.10;99.90;;;;;;4937079;28;20035;-73
2023/12/23 00:05:50;;;;;;;19.67;1.73;;;8.10;99.90;;;;;;4939385;28;20047;-74
2023/12/23 00:08:15;;;;;;;7.53;0.70;;;8.10;99.90;;;;;;4941655;28;20024;-72
2023/12/23 00:10:41;;;;;;;6.20;0.93;;;8.10;99.90;;;;;;4947575;28;20059;-76
2023/12/23 00:13:06;;;;;;;13.50;0.85;;;8.10;99.90;;;;;;4939501;28;20053;-74
2023/12/23 00:15:32;;;;;;;7.63;1.02;;;8.00;99.90;;;;;;4945613;28;20039;-72
2023/12/23 00:17:57;;;;;;;6.60;0.80;;;8.10;99.90;;;;;;4937978;28;20114;-75
2023/12/23 00:20:23;;;;;;;8.27;1.48;;;8.00;99.90;;;;;;4938766;28;20036;-75
2023/12/23 00:22:49;;;;;;;6.50;0.82;;;8.00;99.90;;;;;;4934417;28;20047;-74
2023/12/23 00:25:14;;;;;;;7.75;1.48;;;8.00;99.90;;;;;;4937558;28;20035;-72
2023/12/23 00:27:40;;;;;;;16.52;2.38;;;7.90;99.90;;;;;;4936252;28;20050;-74
2023/12/23 00:30:06;;;;;;;5.75;0.82;;;8.00;99.90;;;;;;4932332;28;20043;-74
2023/12/23 00:32:32;;;;;;;12.80;2.70;;;7.90;99.90;;;;;;4935042;28;20043;-74
2023/12/23 00:34:57;;;;;;;6.15;0.98;;;7.90;99.90;;;;;;4909547;29;20062;-74
2023/12/23 00:37:23;;;;;;;8.25;1.63;;;7.90;99.90;;;;;;4937817;28;20151;-74
2023/12/23 00:39:48;;;;;;;9.27;1.70;;;7.90;99.90;;;;;;4934108;28;20050;-76
2023/12/23 00:42:14;;;;;;;8.55;1.40;;;7.90;99.90;;;;;;4941129;28;20046;-74
2023/12/23 00:44:40;;;;;;;8.15;1.30;;;7.90;99.90;;;;;;4933511;28;20048;-73
2023/12/23 00:47:06;;;;;;;12.13;0.70;;;7.90;99.90;;;;;;4939536;28;20031;-75
2023/12/23 00:49:31;;;;;;;5.88;0.80;;;7.90;99.90;;;;;;4934814;28;20794;-74
2023/12/23 00:51:59;;;;;;;4.25;1.02;;;8.00;99.90;;;;;;4945891;28;20475;-75
2023/12/23 00:54:24;;;;;;;17.90;2.65;;;8.00;99.90;;;;;;4938915;28;20032;-75
2023/12/23 00:56:50;;;;;;;5.88;0.90;;;8.00;99.90;;;;;;4940679;28;20041;-73
2023/12/23 00:59:15;;;;;;;12.68;1.13;;;8.10;99.90;;;;;;4929447;28;20040;-74
2023/12/23 01:01:44;;;;;;;8.20;1.55;;;8.00;99.90;;;;;;4934165;28;20269;-75
2023/12/23 01:04:09;;;;;;;4.55;1.02;;;8.00;99.90;;;;;;4937869;28;20047;-73
2023/12/23 01:06:35;;;;;;;7.65;0.77;;;8.00;99.90;;;;;;4942158;28;20043;-76
2023/12/23 01:09:01;;;;;;;7.00;0.55;;;8.00;99.90;;;;;;4935537;28;20487;-75
2023/12/23 01:11:26;;;;;;;5.40;0.60;;;8.00;99.90;;;;;;4935522;28;20126;-74
2023/12/23 01:13:52;;;;;;;10.05;0.93;;;8.00;99.90;;;;;;4935578;28;20055;-76
2023/12/23 01:16:17;;;;;;;6.38;1.70;;;8.00;99.90;;;;;;4943553;28;20047;-75
2023/12/23 01:18:43;;;;;;;10.52;1.80;;;8.00;99.90;;;;;;4934396;28;20040;-74
2023/12/23 01:21:09;;;;;;;12.15;1.30;;;8.00;99.90;;;;;;4941755;28;20044;-75
2023/12/23 01:23:34;;;;;;;3.90;0.70;;;8.00;99.90;;;;;;4934989;28;20083;-75
2023/12/23 01:26:00;;;;;;;7.70;0.65;;;8.00;99.90;;;;;;4935296;28;20031;-74
2023/12/23 01:28:25;;;;;;;12.40;0.98;;;8.00;99.90;;;;;;4944115;28;20043;-75
2023/12/23 01:30:51;;;;;;;4.40;1.05;;;8.00;99.90;;;;;;4939638;28;20048;-76
2023/12/23 01:33:16;;;;;;;10.25;1.38;;;8.00;99.90;;;;;;4942143;28;20035;-76
2023/12/23 01:35:42;;;;;;;5.97;0.93;;;8.00;99.90;;;;;;4936946;28;20074;-75
2023/12/23 01:38:08;;;;;;;6.60;0.90;;;8.00;99.90;;;;;;4935960;28;20031;-75
2023/12/23 01:40:34;;;;;;;15.00;1.20;;;8.00;99.90;;;;;;4941969;28;20031;-74
2023/12/23 01:42:59;;;;;;;10.20;1.58;;;8.00;99.90;;;;;;4939168;28;20101;-75
2023/12/23 01:45:25;;;;;;;17.30;1.40;;;8.00;99.90;;;;;;4935807;28;20095;-73
2023/12/23 01:47:54;;;;;;;5.35;1.05;;;8.10;99.90;;;;;;4938201;28;20050;-73
2023/12/23 01:50:22;;;;;;;3.58;1.10;;;8.10;99.90;;;;;;4932402;28;20031;-75
2023/12/23 01:52:49;;;;;;;4.00;0.95;;;8.10;99.90;;;;;;4939101;28;20047;-74
2023/12/23 01:55:15;;;;;;;4.03;1.20;;;8.10;99.90;;;;;;4936740;28;20036;-75
2023/12/23 01:57:41;;;;;;;12.73;1.35;;;8.20;99.90;;;;;;4934427;28;20050;-74
2023/12/23 02:00:07;;;;;;;16.55;1.45;;;8.30;99.90;;;;;;4925133;28;20031;-76
2023/12/23 02:02:38;;;;;;;14.88;2.88;;;8.30;99.90;;;;;;4938653;28;20110;-74
2023/12/23 02:05:04;;;;;;;7.78;1.20;;;8.30;99.90;;;;;;4941635;28;20042;-71
2023/12/23 02:07:30;;;;;;;7.97;1.05;;;8.40;99.90;;;;;;4935205;28;20058;-75
2023/12/23 02:09:56;;;;;;;4.93;0.95;;;8.60;99.90;;;;;;4938339;28;20111;-73
2023/12/23 02:12:32;;;;;;;12.75;1.63;;;8.60;99.90;;;;;;4930740;28;20480;-75
2023/12/23 02:15:14;;;;;;;11.13;0.90;;;8.60;99.90;;;;;;4931143;28;20039;-75
2023/12/23 02:17:40;;;;;;;9.20;1.10;;;8.70;99.90;;;;;;4940101;28;20574;-74
2023/12/23 02:20:06;;;;;;;10.73;1.55;;;8.70;99.90;;;;;;4933550;28;20032;-74
2023/12/23 02:22:32;;;;;;;11.90;1.27;;;8.70;99.90;;;;;;4933087;28;20042;-76
2023/12/23 02:24:58;;;;;;;16.70;2.20;;;8.70;99.90;;;;;;4935025;28;20031;-74
2023/12/23 02:27:36;;;;;;;5.20;1.52;;;8.70;99.90;;;;;;4938119;28;20035;-72
2023/12/23 02:30:03;;;;;;;8.95;1.70;;;8.70;99.90;;;;;;4935336;28;20555;-73
2023/12/23 02:32:30;;;;;;;11.02;1.08;;;8.70;99.90;;;;;;4934515;28;20040;-74
2023/12/23 02:34:57;;;;;;;7.90;1.67;;;8.80;99.90;;;;;;4939288;28;20487;-75
2023/12/23 02:37:22;;;;;;;14.20;1.92;;;8.80;99.90;;;;;;4936679;28;20038;-75
2023/12/23 02:39:48;;;;;;;7.03;0.98;;;8.80;99.90;;;;;;4935268;28;20039;-74
2023/12/23 02:42:13;;;;;;;11.35;1.23;;;8.80;99.90;;;;;;4936638;28;20040;-72
2023/12/23 02:44:39;;;;;;;11.43;3.00;;;8.90;99.90;;;;;;4934128;28;20047;-75
2023/12/23 02:47:04;;;;;;;11.77;2.10;;;8.80;99.90;;;;;;4933998;28;20090;-72
2023/12/23 02:49:30;;;;;;;16.20;1.90;;;8.90;99.90;;;;;;4934627;28;20036;-74
2023/12/23 02:51:56;;;;;;;11.50;1.30;;;8.90;99.90;;;;;;4929648;28;20918;-75
2023/12/23 02:54:21;;;;;;;10.48;2.17;;;8.90;99.90;;;;;;4930628;29;20137;-73
2023/12/23 02:56:47;;;;;;;10.20;2.22;;;8.90;99.90;;;;;;4931794;28;20067;-75
2023/12/23 02:59:12;;;;;;;13.88;1.50;;;8.90;99.90;;;;;;4943256;28;20047;-73
2023/12/23 03:01:38;;;;;;;8.43;1.75;;;8.90;99.90;;;;;;4935598;28;20062;-74
2023/12/23 03:04:03;;;;;;;11.60;2.05;;;8.90;99.90;;;;;;4940005;28;20039;-75
2023/12/23 03:06:29;;;;;;;10.63;1.10;;;8.90;99.90;;;;;;4941558;28;20036;-73
2023/12/23 03:08:54;;;;;;;9.05;1.50;;;8.90;99.90;;;;;;4937952;28;20036;-72
2023/12/23 03:11:20;;;;;;;10.30;1.13;;;8.90;99.90;;;;;;4937633;28;20040;-73
2023/12/23 03:13:46;;;;;;;8.35;1.30;;;8.90;99.90;;;;;;4942276;28;20031;-74
2023/12/23 03:16:16;;;;;;;7.53;1.20;;;9.00;99.90;;;;;;4938574;28;20043;-73
2023/12/23 03:18:42;;;;;;;;;;;9.00;99.90;;;;;;4936143;28;20040;-73
2023/12/23 03:21:07;;;;;;;6.18;1.05;;;9.10;99.90;;;;;;4934623;28;20450;-74
2023/12/23 03:23:33;;;;;;;7.70;1.30;;;9.00;99.90;;;;;;4935274;28;20039;-74
2023/12/23 03:25:59;;;;;;;15.70;1.20;;;9.10;99.90;;;;;;4932901;28;20040;-74
2023/12/23 03:28:25;;;;;;;10.65;1.00;;;9.10;99.90;;;;;;4933101;28;20141;-73
2023/12/23 03:30:51;;;;;;;17.70;2.08;;;9.10;99.90;;;;;;4933898;28;20535;-75
2023/12/23 03:33:16;;;;;;;17.45;1.83;;;9.10;99.90;;;;;;4941649;28;20034;-73
2023/12/23 03:35:42;;;;;;;7.50;1.25;;;9.20;99.90;;;;;;4933796;28;20057;-75
2023/12/23 03:38:07;;;;;;;11.55;1.38;;;9.20;99.90;;;;;;4939726;28;20031;-75
2023/12/23 03:40:33;;;;;;;10.57;1.55;;;9.30;99.90;;;;;;4950041;28;20792;-74
2023/12/23 03:42:59;;;;;;;5.57;1.08;;;9.30;99.90;;;;;;4937027;28;20797;-74
2023/12/23 03:45:25;;;;;;;7.97;1.13;;;9.30;99.90;;;;;;4940377;28;20046;-74
2023/12/23 03:47:51;;;;;;;10.43;1.70;;;9.30;99.90;;;;;;4941650;28;20045;-73
2023/12/23 03:50:16;;;;;;;4.88;1.00;;;9.30;99.90;;;;;;4938418;28;20047;-75
2023/12/23 03:52:42;;;;;;;12.90;1.88;;;9.30;99.90;;;;;;4940321;28;20047;-75
2023/12/23 03:55:10;;;;;;;9.70;1.55;;;9.40;99.90;;;;;;4942623;28;20521;-74
2023/12/23 03:57:35;;;;;;;7.28;1.17;;;9.40;99.90;;;;;;4935428;28;20054;-73
2023/12/23 04:00:01;;;;;;;6.72;1.23;;;9.40;99.90;;;;;;4933626;28;20044;-75
2023/12/23 04:02:26;;;;;;;13.55;2.63;;;9.40;99.90;;;;;;4939187;28;20138;-75
2023/12/23 04:04:52;;;;;;;12.05;1.58;;;9.40;99.90;;;;;;4940764;28;20375;-74
2023/12/23 04:07:17;;;;;;;8.52;1.20;;;9.40;99.90;;;;;;4940079;28;20058;-73
2023/12/23 04:09:43;;;;;;;14.25;1.63;;;9.50;99.90;;;;;;4934411;28;20195;-72
2023/12/23 04:12:10;;;;;;;9.95;1.92;;;9.40;99.90;;;;;;4929279;28;20098;-74
2023/12/23 04:14:37;;;;;;;10.80;1.08;;;9.40;99.90;;;;;;4943193;28;20038;-74
2023/12/23 04:17:03;;;;;;;10.82;1.15;;;9.50;99.90;;;;;;4941654;28;20046;-76
2023/12/23 04:19:29;;;;;;;8.82;1.65;;;9.40;99.90;;;;;;4936593;28;20416;-74
2023/12/23 04:21:54;;;;;;;8.93;1.02;;;9.50;99.90;;;;;;4936575;28;20377;-76
2023/12/23 04:24:20;;;;;;;7.57;0.73;;;9.40;99.90;;;;;;4929261;29;20055;-73
2023/12/23 04:26:46;;;;;;;9.20;0.93;;;9.40;99.90;;;;;;4933484;28;20039;-75
2023/12/23 04:29:11;;;;;;;8.52;1.08;;;9.40;99.90;;;;;;4938021;28;20039;-75
2023/12/23 04:31:37;;;;;;;7.32;1.00;;;9.50;99.90;;;;;;4938262;28;20043;-73
2023/12/23 04:34:03;;;;;;;6.85;1.23;;;9.50;99.90;;;;;;4937598;28;20399;-75
2023/12/23 04:36:28;;;;;;;8.40;2.08;;;9.50;99.90;;;;;;4937537;28;20547;-73
2023/12/23 04:38:54;;;;;;;5.65;1.65;;;9.50;99.90;;;;;;4936231;28;20063;-72
2023/12/23 04:41:19;;;;;;;5.38;0.60;;;9.50;99.90;;;;;;4936899;28;20447;-72
2023/12/23 04:43:45;;;;;;;10.95;1.23;;;9.50;99.90;;;;;;4937718;28;20050;-74
2023/12/23 04:46:11;;;;;;;9.85;1.65;;;9.40;99.90;;;;;;4935318;28;20035;-74
2023/12/23 04:48:36;;;;;;;6.38;1.33;;;9.50;99.90;;;;;;4935555;28;20098;-73
2023/12/23 04:51:02;;;;;;;10.77;1.30;;;9.50;99.90;;;;;;4941354;28;20407;-73
2023/12/23 04:53:28;;;;;;;7.70;1.10;;;9.50;99.90;;;;;;4936207;28;20087;-74
2023/12/23 04:55:54;;;;;;;12.25;1.45;;;9.60;99.90;;;;;;4944396;28;20039;-74
2023/12/23 04:58:19;;;;;;;15.98;1.75;;;9.50;99.90;;;;;;4935352;28;20114;-74
2023/12/23 05:00:45;;;;;;;9.55;1.85;;;9.60;99.90;;;;;;4937454;28;20032;-71
2023/12/23 05:03:10;;;;;;;8.43;1.13;;;9.50;99.90;;;;;;4942371;28;20035;-73
2023/12/23 05:05:36;;;;;;;16.73;1.40;;;9.50;99.90;;;;;;4934116;28;20043;-74
2023/12/23 05:08:02;;;;;;;10.82;1.40;;;9.50;99.90;;;;;;4939851;28;20098;-73
2023/12/23 05:10:27;;;;;;;16.52;3.15;;;9.50;99.90;;;;;;4939939;28;20062;-73
2023/12/23 05:12:53;;;;;;;17.73;2.13;;;9.50;99.90;;;;;;4940848;28;20473;-75
2023/12/23 05:15:18;;;;;;;10.88;1.15;;;9.60;99.90;;;;;;4931873;28;20039;-74
2023/12/23 05:17:44;;;;;;;7.18;0.93;;;9.60;99.90;;;;;;4947020;28;20111;-75
2023/12/23 05:20:11;;;;;;;15.07;1.10;;;9.60;99.90;;;;;;4935470;28;20819;-73
2023/12/23 05:22:36;;;;;;;8.75;1.40;;;9.60;99.90;;;;;;4933941;28;20036;-75
2023/12/23 05:25:02;;;;;;;11.02;2.13;;;9.70;99.90;;;;;;4938013;28;20038;-74
2023/12/23 05:27:28;;;;;;;7.65;1.23;;;9.70;99.90;;;;;;4935183;28;20042;-75
2023/12/23 05:29:55;;;;;;;6.07;1.13;;;9.70;99.90;;;;;;4936019;28;20106;-75
2023/12/23 05:32:21;;;;;;;14.30;1.13;;;9.60;99.90;;;;;;4935259;28;20035;-73
2023/12/23 05:34:46;;;;;;;7.18;0.70;;;9.70;99.90;;;;;;4935648;28;20369;-72
2023/12/23 05:37:12;;;;;;;8.40;1.38;;;9.80;99.90;;;;;;4935186;28;20095;-74
2023/12/23 05:39:38;;;;;;;8.32;1.25;;;9.80;99.90;;;;;;4938252;28;20034;-73
2023/12/23 05:42:04;;;;;;;8.75;1.10;;;9.70;99.90;;;;;;4931867;28;20036;-73
2023/12/23 05:44:30;;;;;;;6.53;1.17;;;9.70;99.90;;;;;;4940212;28;20118;-73
2023/12/23 05:46:56;;;;;;;5.22;0.90;;;9.70;99.90;;;;;;4936729;28;20043;-74
2023/12/23 05:49:22;;;;;;;5.43;1.05;;;9.70;99.90;;;;;;4933415;28;20181;-75
2023/12/23 05:51:47;;;;;;;8.52;0.90;;;9.60;99.90;;;;;;4943289;28;20035;-72
2023/12/23 05:54:13;;;;;;;11.20;2.33;;;9.60;99.90;;;;;;4931935;28;20032;-72
2023/12/23 05:56:39;;;;;;;12.68;1.48;;;9.60;99.90;;;;;;4929369;28;20069;-74
2023/12/23 05:59:04;;;;;;;5.93;2.40;;;9.60;99.90;;;;;;4937889;28;20567;-74
2023/12/23 06:01:30;;;;;;;5.25;1.50;;;9.60;99.90;;;;;;4936169;28;20114;-73
2023/12/23 06:03:55;;;;;;;6.22;1.33;;;9.60;99.90;;;;;;4937911;28;20047;-75
2023/12/23 06:06:21;;;;;;;8.98;0.77;;;9.50;99.90;;;;;;4937758;28;20090;-75
2023/12/23 06:08:47;;;;;;;14.88;1.98;;;9.50;99.90;;;;;;4930872;28;20039;-74
2023/12/23 06:11:13;;;;;;;5.75;1.33;;;9.50;99.90;;;;;;4934305;28;20410;-75
2023/12/23 06:13:40;;;;;;;13.75;2.97;;;9.50;99.90;;;;;;4934730;28;20032;-73
2023/12/23 06:16:06;;;;;;;7.82;1.65;;;9.50;99.90;;;;;;4939520;28;20044;-73
2023/12/23 06:18:33;;;;;;;13.48;1.92;;;9.50;99.90;;;;;;4941293;28;20121;-76
2023/12/23 06:20:59;;;;;;;6.82;1.55;;;9.50;99.90;;;;;;4931744;28;20046;-74
2023/12/23 06:23:24;;;;;;;10.82;2.33;;;9.50;99.90;;;;;;4934483;28;20117;-75
2023/12/23 06:25:50;;;;;;;8.20;1.20;;;9.50;99.90;;;;;;4942506;28;20042;-74
2023/12/23 06:28:16;;;;;;;12.95;1.33;;;9.50;99.90;;;;;;4933653;28;20099;-75
2023/12/23 06:30:42;;;;;;;15.30;2.38;;;9.50;99.90;;;;;;4935279;28;20502;-75
2023/12/23 06:33:07;;;;;;;13.15;1.88;;;9.50;99.90;;;;;;4938449;28;20169;-75
2023/12/23 06:35:33;;;;;;;12.50;1.83;;;9.60;99.90;;;;;;4937167;28;20069;-73
2023/12/23 06:37:58;;;;;;;8.35;2.70;;;9.50;99.90;;;;;;4932685;28;20032;-76
2023/12/23 06:40:24;;;;;;;11.82;1.63;;;9.50;99.90;;;;;;4938108;28;20124;-74
2023/12/23 06:42:49;;;;;;;9.32;1.35;;;9.50;99.90;;;;;;4945919;28;20357;-72
2023/12/23 06:45:16;;;;;;;6.55;1.38;;;9.60;99.90;;;;;;4939744;28;20070;-74
2023/12/23 06:47:42;;;;;;;11.82;1.77;;;9.60;99.90;;;;;;4948650;28;20035;-74
2023/12/23 06:50:08;;;;;;;13.73;1.85;;;9.60;99.90;;;;;;4944442;28;20042;-74
2023/12/23 06:52:33;;;;;;;15.02;1.50;;;9.60;99.90;;;;;;4934189;28;20035;-74
2023/12/23 06:54:59;;;;;;;10.10;2.00;;;9.60;99.90;;;;;;4940701;28;20039;-73
2023/12/23 06:57:24;;;;;;;7.07;1.15;;;9.70;99.90;;;;;;4940309;28;20132;-73
2023/12/23 06:59:50;;;;;;;9.02;1.27;;;9.70;99.90;;;;;;4935015;28;20506;-75
2023/12/23 07:02:16;;;;;;;12.40;1.13;;;9.70;99.90;;;;;;4939152;28;20543;-75
2023/12/23 07:04:42;;;;;;;10.80;2.05;;;9.70;99.90;;;;;;4947557;28;20077;-72
2023/12/23 07:07:07;;;;;;;5.30;0.85;;;9.80;99.90;;;;;;4948073;28;20042;-75
2023/12/23 07:09:33;;;;;;;7.18;1.50;;;9.80;99.90;;;;;;4940581;28;20035;-72
2023/12/23 07:11:59;;;;;;;8.00;1.83;;;9.80;99.90;;;;;;4947982;28;20129;-73
2023/12/23 07:14:25;;;;;;;7.25;1.10;;;9.80;99.90;;;;;;4942635;28;20503;-74
2023/12/23 07:16:50;;;;;;;9.77;1.88;;;9.80;99.90;;;;;;4942141;28;20066;-74
2023/12/23 07:19:16;;;;;;;6.15;0.80;;;9.80;99.90;;;;;;4938345;28;20488;-73
2023/12/23 07:21:42;;;;;;;11.35;1.27;;;9.80;99.90;;;;;;4937109;28;20482;-75
2023/12/23 07:24:08;;;;;;;8.23;2.35;;;9.80;99.90;;;;;;4939857;28;20046;-71
2023/12/23 07:26:35;;;;;;;12.05;1.92;;;9.80;99.90;;;;;;4940668;28;20039;-74
2023/12/23 07:29:04;;;;;;;14.30;2.45;;;9.90;99.90;;;;;;4948585;28;20519;-73
2023/12/23 07:31:32;;;;;;;5.00;1.10;;;9.90;99.90;;;;;;4943725;28;20381;-75
2023/12/23 07:33:58;;;;;;;8.75;1.40;;;9.90;99.90;;;;;;4946689;28;20035;-73
2023/12/23 07:36:24;;;;;;;11.10;1.95;;;9.80;99.90;;;;;;4936126;28;20130;-75
2023/12/23 07:38:50;;;;;;;9.07;1.23;;;9.90;99.90;;;;;;4945257;28;20122;-73
2023/12/23 07:41:15;;;;;;;14.90;1.80;;;9.90;99.90;;;;;;4947146;28;20039;-75
2023/12/23 07:43:41;;;;;;;19.77;2.45;;;9.90;99.90;;;;;;4951695;28;20122;-73
2023/12/23 07:46:07;;;;;;;22.02;1.45;;;9.90;99.90;;;;;;4943256;28;20032;-70
2023/12/23 07:48:32;;;;;;;8.63;1.60;;;9.90;99.90;;;;;;4925380;28;20078;-73
2023/12/23 07:50:58;;;;;;;9.75;1.65;;;10.00;99.90;;;;;;4935796;28;20070;-74
2023/12/23 07:53:23;;;;;;;6.25;1.58;;;10.00;99.90;;;;;;4925784;28;20126;-74
2023/12/23 07:55:49;;;;;;;8.48;1.42;;;9.90;99.90;;;;;;4942112;28;20657;-74
2023/12/23 07:58:15;;;;;;;11.55;1.75;;;10.00;99.90;;;;;;4938361;28;20040;-74
2023/12/23 08:00:40;;;;;;;7.25;1.30;;;10.00;99.90;;;;;;4929441;28;20028;-74
2023/12/23 08:03:06;;;;;;;13.88;2.30;;;10.00;99.90;;;;;;4934212;28;20753;-72
2023/12/23 08:05:34;;;;;;;18.98;1.83;;;10.00;99.90;;;;;;4932864;28;20028;-74
2023/12/23 08:07:59;;;;;;;8.27;1.30;;;10.00;99.90;;;;;;4931952;28;20035;-74
2023/12/23 08:10:25;;;;;;;5.80;1.02;;;10.10;99.90;;;;;;4937221;28;20031;-71
2023/12/23 08:12:50;;;;;;;10.45;0.98;;;10.00;99.90;;;;;;4935952;28;20118;-72
2023/12/23 08:15:16;;;;;;;9.15;0.98;;;10.10;99.90;;;;;;4935817;28;20040;-74
2023/12/23 08:17:41;;;;;;;5.32;0.77;;;10.10;99.90;;;;;;4938646;28;20047;-74
2023/12/23 08:20:07;;;;;;;7.22;1.25;;;10.10;99.90;;;;;;4939686;28;20036;-73
2023/12/23 08:22:33;;;;;;;4.95;0.88;;;10.10;99.90;;;;;;4936759;28;20035;-74
2023/12/23 08:24:59;;;;;;;6.10;0.90;;;10.20;99.90;;;;;;4928241;28;20040;-73
2023/12/23 08:27:24;;;;;;;12.75;1.48;;;10.20;99.90;;;;;;4939307;28;20111;-74
2023/12/23 15:55:17;;;;;;;4.57;0.60;;;10.80;99.90;;;;;;5337578;23;19926;-77
2023/12/23 15:57:42;;;;;;;6.30;0.57;;;10.80;99.90;;;;;;4953829;28;20399;-77
2023/12/23 16:00:08;;;;;;;7.82;1.88;;;10.80;99.90;;;;;;4934175;28;20115;-77
2023/12/23 16:02:36;;;;;;;6.50;1.63;;;10.80;99.90;;;;;;4946110;28;20410;-77
2023/12/23 16:05:01;;;;;;;4.63;0.80;;;10.80;99.90;;;;;;4950183;28;20123;-77
2023/12/23 16:07:27;;;;;;;5.20;0.63;;;10.80;99.90;;;;;;4949897;28;20743;-77
2023/12/23 16:09:53;;;;;;;10.43;1.52;;;10.80;99.90;;;;;;4949306;28;20031;-78
2023/12/23 16:12:18;;;;;;;12.38;1.40;;;10.80;99.90;;;;;;4942500;28;20062;-78
2023/12/23 16:14:44;;;;;;;7.22;0.80;;;10.70;99.90;;;;;;4943312;28;20036;-77
2023/12/23 16:17:10;;;;;;;4.95;0.75;;;10.70;99.90;;;;;;4942353;28;20041;-79
2023/12/23 16:19:35;;;;;;;5.03;1.30;;;10.70;99.90;;;;;;4944279;28;20028;-78
2023/12/23 16:22:01;;;;;;;5.90;1.23;;;10.70;99.90;;;;;;4943881;28;20550;-77
2023/12/23 16:24:27;;;;;;;7.72;0.80;;;10.70;99.90;;;;;;4935562;29;20484;-77
2023/12/23 16:26:52;;;;;;;6.60;0.90;;;10.70;99.90;;;;;;4930938;29;20039;-77
2023/12/23 16:29:18;;;;;;;4.43;1.38;;;10.70;99.90;;;;;;4943716;28;20043;-77
2023/12/23 16:31:44;;;;;;;4.18;0.68;;;10.70;99.90;;;;;;4948685;28;20039;-78
2023/12/23 16:34:10;;;;;;;12.60;1.40;;;10.70;99.90;;;;;;4946443;28;20129;-78
2023/12/23 16:36:35;;;;;;;6.30;1.48;;;10.70;99.90;;;;;;4940312;29;20062;-76
2023/12/23 16:39:02;;;;;;;6.35;1.45;;;10.70;99.90;;;;;;4929601;29;20498;-77
2023/12/23 16:41:28;;;;;;;5.38;1.40;;;10.80;99.90;;;;;;4931318;28;20051;-77
2023/12/23 16:43:54;;;;;;;6.97;1.73;;;10.80;99.90;;;;;;4937811;28;20038;-77
2023/12/23 16:46:19;;;;;;;5.72;0.95;;;10.70;99.90;;;;;;4928939;29;20555;-78
2023/12/23 16:48:45;;;;;;;6.78;0.90;;;10.70;99.90;;;;;;4935173;28;20217;-78
2023/12/23 16:51:10;;;;;;;8.90;2.00;;;10.80;99.90;;;;;;4929343;29;20031;-78
2023/12/23 16:53:36;;;;;;;5.47;1.23;;;10.80;99.90;;;;;;4928385;29;20043;-77
2023/12/23 16:56:02;;;;;;;5.15;0.70;;;10.70;99.90;;;;;;4929622;29;20063;-78
2023/12/23 16:58:28;;;;;;;6.95;1.10;;;10.70;99.90;;;;;;4929320;29;20526;-79
2023/12/23 17:00:53;;;;;;;9.27;0.82;;;10.70;99.90;;;;;;4930975;29;20043;-78
2023/12/23 17:03:19;;;;;;;4.68;0.80;;;10.70;99.90;;;;;;4928494;29;20024;-77
2023/12/23 17:05:45;;;;;;;1.67;0.40;;;10.70;99.90;;;;;;4932577;29;20555;-77
2023/12/23 17:08:10;;;;;;;7.53;1.63;;;10.80;99.90;;;;;;4940760;29;20105;-77
2023/12/23 17:10:36;;;;;;;10.75;1.10;;;10.80;99.90;;;;;;4932295;28;20076;-77
2023/12/23 17:13:02;;;;;;;5.28;1.20;;;10.70;99.90;;;;;;4946620;28;20043;-77
2023/12/23 17:15:27;;;;;;;7.85;0.70;;;10.80;99.90;;;;;;4949616;28;20544;-77
2023/12/23 17:17:53;;;;;;;7.65;0.95;;;10.80;99.90;;;;;;4948194;29;20035;-75
2023/12/23 17:20:19;;;;;;;6.32;1.13;;;10.70;99.90;;;;;;4936168;28;20039;-78
2023/12/23 17:22:45;;;;;;;9.00;0.80;;;10.70;99.90;;;;;;4930149;29;20122;-77
2023/12/23 17:25:11;;;;;;;4.70;0.80;;;10.70;99.90;;;;;;4947961;28;20127;-78
2023/12/23 17:27:36;;;;;;;3.88;0.60;;;10.70;99.90;;;;;;4929261;29;20365;-78
2023/12/23 17:30:02;;;;;;;8.02;1.55;;;10.70;99.90;;;;;;4941897;28;20033;-77
2023/12/23 17:32:28;;;;;;;5.50;0.73;;;10.70;99.90;;;;;;4936122;29;20043;-80
2023/12/23 17:34:53;;;;;;;3.80;0.57;;;10.70;99.90;;;;;;4934095;29;20122;-79
2023/12/23 17:37:19;;;;;;;5.88;2.15;;;10.70;99.90;;;;;;4948292;28;20074;-77
2023/12/23 17:39:44;;;;;;;5.47;0.88;;;10.80;99.90;;;;;;4937275;28;20040;-77
2023/12/23 17:42:10;;;;;;;5.50;0.73;;;10.80;99.90;;;;;;4936520;29;20804;-77
2023/12/23 17:44:35;;;;;;;7.57;1.35;;;10.80;99.90;;;;;;4940402;28;20142;-77
2023/12/23 17:47:01;;;;;;;5.18;1.77;;;10.80;99.90;;;;;;4938427;29;20043;-77
2023/12/23 17:49:27;;;;;;;3.05;0.70;;;10.80;99.90;;;;;;4933485;28;20038;-79
2023/12/23 17:51:53;;;;;;;5.72;1.00;;;10.80;99.90;;;;;;4942789;29;20074;-78
2023/12/23 17:54:18;;;;;;;11.80;1.45;;;10.90;99.90;;;;;;4938607;28;21142;-78
2023/12/23 17:56:45;;;;;;;6.40;1.35;;;10.80;99.90;;;;;;4945695;28;20043;-78
2023/12/23 17:59:11;;;;;;;4.63;0.65;;;10.80;99.90;;;;;;4934050;28;20050;-76
2023/12/23 18:01:38;;;;;;;2.22;0.63;;;10.80;99.90;;;;;;4944616;28;20060;-76
2023/12/23 18:04:04;;;;;;;7.95;1.60;;;10.80;99.90;;;;;;4934697;28;20028;-78
2023/12/23 18:06:29;;;;;;;5.75;0.80;;;10.80;99.90;;;;;;4939283;28;20039;-78
2023/12/23 18:08:55;;;;;;;3.75;0.70;;;10.80;99.90;;;;;;4930576;29;20047;-77
2023/12/23 18:11:20;;;;;;;2.50;0.73;;;10.80;99.90;;;;;;4940842;28;20054;-78
2023/12/23 18:13:46;;;;;;;5.82;0.60;;;10.90;99.90;;;;;;4942153;29;20050;-77
2023/12/23 18:16:12;;;;;;;2.88;0.60;;;10.80;99.90;;;;;;4935388;28;20046;-78
2023/12/23 18:18:38;;;;;;;3.83;0.90;;;10.80;99.90;;;;;;4944446;28;20177;-77
2023/12/23 18:21:03;;;;;;;5.53;1.00;;;10.80;99.90;;;;;;4931075;28;20031;-78
2023/12/23 18:23:29;;;;;;;4.57;1.48;;;10.90;99.90;;;;;;4927590;29;20685;-77
2023/12/23 18:25:55;;;;;;;4.43;0.73;;;10.90;99.90;;;;;;4929405;29;20038;-77
2023/12/23 18:28:21;;;;;;;5.57;0.70;;;10.90;99.90;;;;;;4937964;29;20032;-77
2023/12/23 18:30:46;;;;;;;5.78;1.40;;;10.90;99.90;;;;;;4935963;28;20039;-76
2023/12/23 18:33:13;;;;;;;7.82;0.70;;;10.80;99.90;;;;;;4940977;28;20065;-78
2023/12/23 18:35:39;;;;;;;4.68;0.90;;;10.80;99.90;;;;;;4940045;28;20032;-77
2023/12/23 18:38:05;;;;;;;5.28;1.10;;;10.90;99.90;;;;;;4935607;28;20035;-77
2023/12/23 18:40:31;;;;;;;1.65;0.60;;;10.90;99.90;;;;;;4937774;28;20027;-77
2023/12/23 18:43:00;;;;;;;7.47;1.38;;;10.80;99.90;;;;;;4939598;29;20051;-78
2023/12/23 18:45:26;;;;;;;6.17;1.20;;;10.90;99.90;;;;;;4944216;28;20046;-78
2023/12/23 18:47:51;;;;;;;6.07;0.98;;;10.80;99.90;;;;;;4947692;28;20835;-78
2023/12/23 18:50:17;;;;;;;3.67;1.73;;;10.90;99.90;;;;;;4930548;29;20035;-77
2023/12/23 18:52:43;;;;;;;4.43;0.73;;;10.90;99.90;;;;;;4926662;29;20040;-77
2023/12/23 18:55:08;;;;;;;8.77;0.80;;;10.90;99.90;;;;;;4929929;29;20052;-77
2023/12/23 18:57:34;;;;;;;1.85;0.65;;;10.90;99.90;;;;;;4934342;29;20039;-78
2023/12/23 18:59:59;;;;;;;7.32;1.35;;;10.90;99.90;;;;;;4928431;29;20180;-76
2023/12/23 19:02:25;;;;;;;5.18;0.65;;;10.90;99.90;;;;;;4936803;28;20658;-79
2023/12/23 19:04:50;;;;;;;6.90;1.38;;;10.90;99.90;;;;;;4938665;28;20123;-77
2023/12/23 19:07:17;;;;;;;2.72;0.60;;;10.80;99.90;;;;;;4942146;28;20046;-78
2023/12/23 19:09:42;;;;;;;5.78;1.25;;;10.80;99.90;;;;;;4946126;28;20040;-77
2023/12/23 19:12:09;;;;;;;4.43;0.90;;;10.80;99.90;;;;;;4944980;29;20459;-78
2023/12/23 19:14:34;;;;;;;5.82;0.90;;;10.80;99.90;;;;;;4937868;28;20031;-78
2023/12/23 19:17:00;;;;;;;4.80;0.88;;;10.80;99.90;;;;;;4946680;28;20098;-79
2023/12/23 19:19:25;;;;;;;4.70;0.65;;;10.80;99.90;;;;;;4943347;28;20039;-77
2023/12/23 19:21:51;;;;;;;11.55;1.95;;;10.80;99.90;;;;;;4930001;29;20549;-78
2023/12/23 19:24:16;;;;;;;4.22;0.63;;;10.80;99.90;;;;;;4926831;28;20427;-79
2023/12/23 19:26:42;;;;;;;5.45;1.95;;;10.80;99.90;;;;;;4944264;28;20047;-77
2023/12/23 19:29:08;;;;;;;4.53;0.90;;;10.80;99.90;;;;;;4945494;28;20031;-77
2023/12/23 19:31:40;;;;;;;4.90;1.05;;;10.80;99.90;;;;;;4936541;29;20051;-78
2023/12/23 19:34:06;;;;;;;9.77;1.20;;;10.80;99.90;;;;;;4936294;28;20031;-77
2023/12/23 19:36:31;;;;;;;10.50;1.45;;;10.80;99.90;;;;;;4937216;28;20175;-77
2023/12/23 19:38:57;;;;;;;5.03;1.45;;;10.80;99.90;;;;;;4927459;29;20040;-76
2023/12/23 19:41:23;;;;;;;7.88;1.27;;;10.80;99.90;;;;;;4944915;28;20075;-76
2023/12/23 19:43:48;;;;;;;9.05;2.10;;;10.80;99.90;;;;;;4919082;29;20084;-77
2023/12/23 19:46:14;;;;;;;2.10;0.60;;;10.80;99.90;;;;;;4907593;29;20614;-77
2023/12/23 19:48:40;;;;;;;11.18;2.35;;;10.80;99.90;;;;;;4937531;28;20128;-77
2023/12/23 19:51:06;;;;;;;7.55;1.05;;;10.80;99.90;;;;;;4938399;28;20115;-77
2023/12/23 19:53:32;;;;;;;6.80;1.50;;;10.80;99.90;;;;;;4939740;28;20047;-76
2023/12/23 19:55:58;;;;;;;3.30;0.75;;;10.80;99.90;;;;;;4929430;29;20052;-77
2023/12/23 19:58:24;;;;;;;10.20;0.52;;;10.80;99.90;;;;;;4932652;28;20040;-76
2023/12/23 20:00:49;;;;;;;4.75;0.70;;;10.90;99.90;;;;;;4942421;28;20042;-78
2023/12/23 20:03:15;;;;;;;6.47;1.02;;;10.80;99.90;;;;;;4944243;28;20034;-77
2023/12/23 20:05:40;;;;;;;7.80;0.77;;;10.80;99.90;;;;;;4946064;28;20039;-79
2023/12/23 20:08:06;;;;;;;6.15;0.80;;;10.80;99.90;;;;;;4949576;28;20720;-77